Time;durP1;ratioP1;P1;durP2;ratioP2;P2;SDS_P1;SDS_P2;PMS_P1;PMS_P2;Temp;Humidity;BMP_temperature;BMP_pressure;BME280_temperature;BME280_humidity;BME280_pressure;Samples;Min_cycle;Max_cycle;Signal;HPM_P1;HPM_P2
2023/10/17 00:01:23;;;;;;;0.90;0.88;;;;;;;6.69;60.01;95070.84;5043981;28;20640;-76
2023/10/17 00:03:54;;;;;;;1.23;0.73;;;;;;;6.85;59.90;95074.06;5064451;28;20234;-76
2023/10/17 00:06:22;;;;;;;2.05;0.80;;;;;;;6.86;60.08;95064.91;5057969;28;20566;-76
2023/10/17 00:08:51;;;;;;;0.85;0.68;;;;;;;6.93;59.84;95057.28;5048952;28;20218;-76
2023/10/17 00:11:20;;;;;;;0.20;0.20;;;;;;;6.95;60.17;95057.78;5048841;28;20543;-76
2023/10/17 00:13:59;;;;;;;1.27;0.55;;;;;;;7.03;60.01;95049.03;5068669;28;20324;-75
2023/10/17 00:16:27;;;;;;;0.68;0.60;;;;;;;7.04;60.19;95039.84;5055706;28;20302;-76
2023/10/17 00:18:57;;;;;;;0.20;0.20;;;;;;;7.08;60.39;95040.06;5048981;28;20239;-76
2023/10/17 00:21:26;;;;;;;0.20;0.20;;;;;;;7.09;60.63;95036.28;5041751;28;20200;-76
2023/10/17 00:23:53;;;;;;;0.25;0.25;;;;;;;7.11;60.91;95044.84;5036643;28;20294;-76
2023/10/17 00:26:20;;;;;;;0.20;0.20;;;;;;;7.18;60.89;95049.88;5050319;28;20286;-76
2023/10/17 00:28:48;;;;;;;0.43;0.32;;;;;;;7.22;61.05;95040.91;5054777;28;20279;-76
2023/10/17 00:31:16;;;;;;;0.20;0.20;;;;;;;7.21;61.26;95039.31;5056126;28;20200;-76
2023/10/17 00:33:48;;;;;;;0.20;0.20;;;;;;;7.19;61.52;95040.69;5059143;28;20292;-76
2023/10/17 00:36:18;;;;;;;0.25;0.25;;;;;;;7.20;61.60;95042.28;5069578;28;20207;-75
2023/10/17 00:38:45;;;;;;;0.20;0.20;;;;;;;7.09;62.10;95036.28;5069751;28;20207;-75
2023/10/17 00:41:19;;;;;;;0.20;0.20;;;;;;;6.99;62.76;95029.16;5052337;28;20231;-76
2023/10/17 00:43:46;;;;;;;0.20;0.20;;;;;;;6.94;63.06;95023.06;5052672;28;20203;-75
2023/10/17 00:46:13;;;;;;;0.20;0.20;;;;;;;6.89;63.29;95026.63;5050486;28;20203;-76
2023/10/17 00:48:42;;;;;;;0.20;0.20;;;;;;;6.84;63.76;95024.00;5049541;28;20222;-76
2023/10/17 00:51:09;;;;;;;0.20;0.20;;;;;;;6.83;64.13;95021.63;5046089;28;20729;-76
2023/10/17 00:53:40;;;;;;;0.63;0.63;;;;;;;6.93;64.21;95022.25;5029806;28;20220;-76
2023/10/17 00:56:08;;;;;;;0.20;0.20;;;;;;;6.94;64.52;95023.88;5068149;28;20210;-77
2023/10/17 00:58:35;;;;;;;0.20;0.20;;;;;;;7.00;64.57;95021.88;5069418;28;20211;-76
2023/10/17 01:01:14;;;;;;;0.17;0.17;;;;;;;6.99;64.86;95015.69;5060752;28;20204;-77
2023/10/17 01:03:43;;;;;;;0.20;0.20;;;;;;;6.97;65.30;95023.25;5060041;28;20225;-76
2023/10/17 01:06:21;;;;;;;0.20;0.20;;;;;;;6.97;65.52;95017.09;5069783;28;20305;-75
2023/10/17 01:08:49;;;;;;;0.20;0.20;;;;;;;6.96;65.94;95021.69;5069395;28;20317;-77
2023/10/17 01:11:20;;;;;;;0.28;0.28;;;;;;;6.97;66.35;95022.47;5056689;28;20219;-76
2023/10/17 01:13:49;;;;;;;0.20;0.20;;;;;;;6.97;67.27;95028.63;5067943;28;20219;-76
2023/10/17 01:16:16;;;;;;;0.20;0.20;;;;;;;7.02;67.25;95019.69;5060562;28;20214;-75
2023/10/17 01:18:47;;;;;;;0.20;0.20;;;;;;;7.01;67.32;95024.28;5053642;28;20250;-76
2023/10/17 01:21:17;;;;;;;0.77;0.73;;;;;;;6.96;67.81;95029.75;5047544;28;20196;-76
2023/10/17 01:23:45;;;;;;;0.40;0.40;;;;;;;6.96;68.36;95035.16;5072499;28;20202;-75
2023/10/17 01:26:20;;;;;;;0.77;0.77;;;;;;;6.98;68.47;95027.53;5073670;28;20207;-76
2023/10/17 01:28:48;;;;;;;1.33;0.60;;;;;;;7.02;68.75;95042.03;5058973;28;20215;-76
2023/10/17 01:31:22;;;;;;;0.75;0.75;;;;;;;6.98;69.00;95024.84;5050791;28;20223;-76
2023/10/17 01:33:50;;;;;;;0.50;0.50;;;;;;;6.93;69.39;95027.66;5071704;28;20238;-75
2023/10/17 01:36:19;;;;;;;1.25;0.68;;;;;;;6.95;69.65;95030.06;5070857;28;20219;-76
2023/10/17 01:38:47;;;;;;;0.60;0.60;;;;;;;6.93;70.07;95022.25;5053758;28;20668;-76
2023/10/17 01:41:18;;;;;;;0.70;0.68;;;;;;;6.81;70.57;95010.34;5064256;28;20207;-76
2023/10/17 01:43:47;;;;;;;0.20;0.20;;;;;;;6.84;71.12;95018.63;5061902;28;20294;-76
2023/10/17 01:46:15;;;;;;;0.25;0.25;;;;;;;6.82;71.38;95014.66;5053127;28;20509;-76
2023/10/17 01:48:46;;;;;;;0.75;0.75;;;;;;;6.79;72.05;95018.72;5051763;28;20210;-75
2023/10/17 01:51:13;;;;;;;0.75;0.70;;;;;;;6.82;72.29;95023.53;5048371;28;20201;-77
2023/10/17 01:53:42;;;;;;;0.25;0.25;;;;;;;6.82;72.64;95020.03;5059010;28;20626;-78
2023/10/17 01:56:14;;;;;;;0.28;0.28;;;;;;;6.86;72.92;95024.53;5072763;28;20687;-77
2023/10/17 01:58:48;;;;;;;0.98;0.85;;;;;;;6.91;72.73;95019.06;5058865;28;20192;-77
2023/10/17 02:01:17;;;;;;;0.55;0.55;;;;;;;6.94;73.01;95018.47;5047666;28;20566;-77
2023/10/17 02:03:44;;;;;;;0.80;0.80;;;;;;;7.01;72.82;95013.50;5048496;28;20208;-77
2023/10/17 02:06:15;;;;;;;1.92;1.08;;;;;;;7.11;72.69;95021.41;5061980;28;20214;-77
2023/10/17 02:08:43;;;;;;;0.28;0.28;;;;;;;7.16;72.59;95014.34;5072922;28;20218;-78
2023/10/17 02:11:18;;;;;;;0.20;0.20;;;;;;;7.20;72.48;95016.16;5058557;28;20231;-77
2023/10/17 02:13:46;;;;;;;0.20;0.20;;;;;;;7.19;72.79;95011.06;5050817;28;20292;-76
2023/10/17 02:16:13;;;;;;;0.20;0.20;;;;;;;7.26;72.68;95019.53;5052621;28;20207;-76
2023/10/17 02:18:40;;;;;;;0.25;0.25;;;;;;;7.27;72.88;95005.75;5052107;28;20244;-76
2023/10/17 02:21:07;;;;;;;0.30;0.30;;;;;;;7.20;72.97;95008.06;5047871;28;20298;-78
2023/10/17 02:23:48;;;;;;;0.20;0.20;;;;;;;7.13;73.37;95005.75;5067395;28;20203;-76
2023/10/17 02:26:21;;;;;;;0.30;0.30;;;;;;;7.05;73.62;95014.50;5072332;28;20210;-76
2023/10/17 02:28:50;;;;;;;0.20;0.20;;;;;;;7.05;73.91;95003.75;5057459;28;20327;-77
2023/10/17 02:31:22;;;;;;;0.90;0.70;;;;;;;7.04;74.01;95006.72;5048489;28;20240;-77
2023/10/17 02:33:49;;;;;;;0.60;0.57;;;;;;;7.05;74.13;94997.56;5063534;28;20208;-76
2023/10/17 02:36:17;;;;;;;1.75;0.75;;;;;;;7.02;74.38;95007.03;5052323;28;20203;-76
2023/10/17 02:38:44;;;;;;;2.45;1.00;;;;;;;7.05;73.95;95008.31;5052167;28;20322;-76
2023/10/17 02:41:18;;;;;;;6.80;1.13;;;;;;;6.99;74.61;95004.91;5050472;28;20303;-76
2023/10/17 02:43:45;;;;;;;1.50;0.88;;;;;;;7.00;74.81;95006.50;5054451;28;20261;-76
2023/10/17 02:46:14;;;;;;;0.55;0.43;;;;;;;7.07;74.98;95016.91;5051624;28;20203;-76
2023/10/17 02:48:42;;;;;;;1.80;1.00;;;;;;;7.03;75.17;95016.69;5052038;28;20242;-76
2023/10/17 02:51:31;;;;;;;0.70;0.70;;;;;;;7.04;75.60;94994.06;5050326;28;20353;-77
2023/10/17 02:53:58;;;;;;;1.95;1.10;;;;;;;7.07;75.90;95004.25;5050553;28;20353;-76
2023/10/17 02:56:26;;;;;;;1.13;0.80;;;;;;;7.05;76.01;95009.13;5071833;28;20249;-77
2023/10/17 02:59:04;;;;;;;1.20;1.10;;;;;;;7.01;76.28;95007.31;5055844;28;20207;-77
2023/10/17 03:01:33;;;;;;;1.33;0.98;;;;;;;6.97;76.49;95001.72;5044126;28;20641;-75
2023/10/17 03:04:02;;;;;;;0.98;0.80;;;;;;;7.01;76.49;95012.69;5066796;28;20574;-75
2023/10/17 03:06:29;;;;;;;1.60;1.00;;;;;;;7.00;76.60;95001.13;5055214;28;20196;-76
2023/10/17 03:09:00;;;;;;;1.40;1.00;;;;;;;7.02;76.46;95003.53;5051521;28;20591;-77
2023/10/17 03:11:35;;;;;;;0.75;0.63;;;;;;;7.03;76.59;95019.38;5050755;28;20203;-76
2023/10/17 03:14:12;;;;;;;1.17;0.90;;;;;;;7.01;76.70;95012.69;5056021;28;20218;-75
2023/10/17 03:16:40;;;;;;;0.80;0.70;;;;;;;7.10;76.46;95022.53;5071266;28;20301;-76
2023/10/17 03:19:11;;;;;;;1.02;0.80;;;;;;;7.12;76.42;95019.50;5070812;28;20590;-76
2023/10/17 03:21:43;;;;;;;1.15;0.90;;;;;;;7.16;76.38;95011.63;5052595;28;20204;-78
2023/10/17 03:24:12;;;;;;;0.20;0.20;;;;;;;7.20;76.33;95009.97;5039809;28;20204;-77
2023/10/17 03:26:39;;;;;;;0.20;0.20;;;;;;;7.24;76.25;95000.19;5047971;28;20660;-77
2023/10/17 03:29:18;;;;;;;0.35;0.35;;;;;;;7.30;76.10;94999.00;5057373;28;20232;-78
2023/10/17 03:31:48;;;;;;;0.20;0.20;;;;;;;7.29;76.21;95006.28;5046503;28;20269;-77
2023/10/17 03:34:19;;;;;;;0.20;0.20;;;;;;;7.30;76.45;95009.75;5050467;28;20223;-78
2023/10/17 03:36:52;;;;;;;0.88;0.88;;;;;;;7.29;76.82;95008.16;5048819;28;20237;-77
2023/10/17 03:39:21;;;;;;;0.63;0.63;;;;;;;7.33;76.76;95003.78;5051049;28;20266;-77
2023/10/17 03:41:56;;;;;;;1.10;0.98;;;;;;;7.40;76.83;95009.56;5052410;28;20204;-77
2023/10/17 03:44:29;;;;;;;2.38;1.08;;;;;;;7.39;77.33;95007.97;5053441;28;20571;-76
2023/10/17 03:47:03;;;;;;;1.92;1.42;;;;;;;7.44;77.39;95000.59;5050487;28;20204;-77
2023/10/17 03:49:36;;;;;;;2.15;1.30;;;;;;;7.51;77.30;95004.81;5047561;28;20200;-78
2023/10/17 03:52:06;;;;;;;0.50;0.50;;;;;;;7.42;77.70;95010.06;5048764;28;20509;-77
2023/10/17 03:54:38;;;;;;;0.95;0.93;;;;;;;7.47;78.07;95007.31;5054546;28;20228;-78
2023/10/17 03:57:13;;;;;;;1.42;1.10;;;;;;;7.41;78.33;95005.78;5044142;28;20576;-78
2023/10/17 03:59:41;;;;;;;1.45;0.98;;;;;;;7.40;78.29;94998.78;5049282;28;20207;-76
2023/10/17 04:02:13;;;;;;;0.20;0.20;;;;;;;7.40;78.11;94999.59;5040763;28;20262;-77
2023/10/17 04:04:49;;;;;;;0.17;0.17;;;;;;;7.38;78.10;94995.63;5070176;28;20557;-77
2023/10/17 04:07:16;;;;;;;0.28;0.28;;;;;;;7.39;78.50;95006.06;5070167;28;20700;-76
2023/10/17 04:09:52;;;;;;;0.20;0.20;;;;;;;7.36;78.51;95004.00;5070172;28;20211;-76
2023/10/17 04:12:31;;;;;;;0.20;0.20;;;;;;;7.46;78.35;95005.69;5054030;28;20244;-78
2023/10/17 04:14:59;;;;;;;0.20;0.20;;;;;;;7.51;78.37;95008.31;5069955;28;20237;-77
2023/10/17 04:17:29;;;;;;;0.30;0.30;;;;;;;7.51;78.20;95011.00;5051656;28;20203;-77
2023/10/17 04:20:10;;;;;;;0.35;0.35;;;;;;;7.57;77.85;95001.72;5064576;28;20211;-80
2023/10/17 04:22:38;;;;;;;0.17;0.17;;;;;;;7.58;77.89;94994.41;5058811;28;20576;-78
2023/10/17 04:25:19;;;;;;;0.30;0.30;;;;;;;7.62;77.98;95001.63;5070166;28;20694;-77
2023/10/17 04:27:46;;;;;;;0.10;0.10;;;;;;;7.53;77.81;94998.00;5070480;28;20598;-78
2023/10/17 04:30:21;;;;;;;0.20;0.20;;;;;;;7.54;77.80;95005.00;5051742;28;20270;-78
2023/10/17 04:32:52;;;;;;;0.22;0.22;;;;;;;7.54;77.44;95005.00;5048792;28;20311;-78
2023/10/17 04:35:20;;;;;;;1.23;0.70;;;;;;;7.54;77.63;95010.38;5070144;28;20215;-76
2023/10/17 04:38:09;;;;;;;1.02;0.90;;;;;;;7.57;77.34;95003.59;5070226;28;20574;-77
2023/10/17 04:40:42;;;;;;;0.70;0.65;;;;;;;7.60;77.20;94995.72;5067791;28;20230;-78
2023/10/17 04:45:55;;;;;;;0.98;0.88;;;;;;;7.67;76.53;94988.03;5018116;28;20730;-74
2023/10/17 04:48:32;;;;;;;1.58;1.15;;;;;;;7.64;76.70;94999.44;5061724;28;20207;-78
2023/10/17 04:51:12;;;;;;;0.20;0.20;;;;;;;7.66;76.86;94991.81;5062679;28;20200;-79
2023/10/17 04:53:47;;;;;;;0.30;0.30;;;;;;;7.69;76.45;94991.22;5068507;28;20215;-78
2023/10/17 04:56:16;;;;;;;0.20;0.20;;;;;;;7.74;76.74;94995.72;5069900;28;20241;-78
2023/10/17 04:58:48;;;;;;;0.20;0.20;;;;;;;7.75;76.58;95000.81;5070426;28;20206;-78
2023/10/17 05:04:20;;;;;;;0.20;0.20;;;;;;;8.27;74.85;94995.94;5064194;28;20306;-76
2023/10/17 06:18:17;;;;;;;0.20;0.20;;;;;;;12.13;61.65;95033.53;5052106;28;20246;-79
2023/10/17 06:32:06;;;;;;;0.20;0.20;;;;;;;10.78;64.96;95027.75;5048052;28;20202;-72
2023/10/17 06:34:33;;;;;;;0.20;0.20;;;;;;;10.72;65.46;95037.13;5072119;28;20258;-73
2023/10/17 06:37:01;;;;;;;0.30;0.30;;;;;;;10.63;65.80;95027.09;5072164;28;20218;-73
2023/10/17 06:39:36;;;;;;;0.20;0.20;;;;;;;10.76;65.67;95029.97;5058374;28;20762;-73
2023/10/17 06:42:18;;;;;;;0.20;0.20;;;;;;;10.96;64.93;95021.19;5058712;28;20294;-72
2023/10/17 06:45:01;;;;;;;0.10;0.10;;;;;;;11.26;64.10;95022.91;5048956;28;20608;-73
2023/10/17 06:47:30;;;;;;;0.55;0.55;;;;;;;11.51;63.12;95034.03;5052675;28;20290;-73
2023/10/17 06:52:54;;;;;;;0.43;0.43;;;;;;;11.04;64.03;95032.03;5051283;28;20219;-74
2023/10/17 06:55:22;;;;;;;0.20;0.20;;;;;;;11.18;63.96;95026.44;5051943;28;20665;-74
2023/10/17 06:57:52;;;;;;;0.20;0.20;;;;;;;11.32;63.58;95020.84;5052479;28;20552;-74
2023/10/17 07:00:24;;;;;;;0.38;0.38;;;;;;;10.89;64.11;95034.44;5051624;28;20244;-75
2023/10/17 07:02:56;;;;;;;0.20;0.20;;;;;;;10.97;64.26;95025.50;5046529;28;20659;-74
2023/10/17 07:05:24;;;;;;;0.30;0.30;;;;;;;10.67;64.89;95016.41;5072323;28;20205;-75
2023/10/17 07:07:52;;;;;;;0.20;0.20;;;;;;;10.43;65.98;95016.88;5072283;28;20331;-77
2023/10/17 07:10:37;;;;;;;0.43;0.43;;;;;;;10.73;65.30;95009.72;5046472;28;20318;-74
2023/10/17 07:13:48;;;;;;;0.17;0.17;;;;;;;10.76;64.63;95008.28;5058578;28;20218;-74
2023/10/17 07:16:24;;;;;;;0.10;0.10;;;;;;;10.62;65.05;94998.41;5071954;28;20214;-73
2023/10/17 07:18:52;;;;;;;0.20;0.20;;;;;;;10.90;64.83;94998.09;5068967;28;20238;-74
2023/10/17 07:21:23;;;;;;;0.20;0.20;;;;;;;11.10;64.29;95002.84;5042756;28;20215;-74
2023/10/17 07:23:53;;;;;;;0.20;0.20;;;;;;;10.95;64.39;94996.00;5065228;28;20199;-72
2023/10/17 07:26:38;;;;;;;13.00;4.05;;;;;;;10.99;63.79;94996.16;5071498;28;20215;-73
2023/10/17 07:29:06;;;;;;;0.30;0.30;;;;;;;10.91;63.79;94989.63;5064983;28;20663;-72
2023/10/17 07:31:36;;;;;;;3.42;0.90;;;;;;;10.91;63.68;94989.63;5044384;28;20215;-72
2023/10/17 07:34:18;;;;;;;0.30;0.30;;;;;;;10.85;64.03;94990.91;5070972;28;20576;-73
2023/10/17 07:36:48;;;;;;;0.32;0.32;;;;;;;11.11;63.84;94999.00;5071685;28;20246;-73
2023/10/17 07:39:24;;;;;;;0.10;0.10;;;;;;;11.34;62.56;94997.66;5071512;28;20242;-73
2023/10/17 07:41:55;;;;;;;1.10;1.00;;;;;;;11.42;62.31;94998.78;5071729;28;20310;-74
2023/10/17 07:44:21;;;;;;;0.20;0.20;;;;;;;11.51;61.99;95002.25;5047333;28;20208;-73
2023/10/17 07:47:03;;;;;;;0.20;0.20;;;;;;;11.60;61.33;95000.34;5051162;28;20310;-73
2023/10/17 07:49:30;;;;;;;0.20;0.20;;;;;;;11.74;60.76;94983.84;5050955;28;20239;-74
2023/10/17 07:51:58;;;;;;;0.20;0.20;;;;;;;11.65;60.11;94991.19;5051309;28;20207;-73
2023/10/17 07:54:28;;;;;;;0.32;0.32;;;;;;;11.76;59.46;94981.59;5051177;28;20250;-74
2023/10/17 07:56:58;;;;;;;0.43;0.43;;;;;;;11.97;59.01;94982.47;5051257;28;20203;-72
2023/10/17 07:59:31;;;;;;;0.20;0.20;;;;;;;12.20;58.61;94974.84;5051296;28;20226;-73
2023/10/17 08:02:18;;;;;;;0.20;0.20;;;;;;;12.07;58.39;94992.97;5051024;28;20211;-75
2023/10/17 08:04:46;;;;;;;0.20;0.20;;;;;;;11.79;58.84;94978.25;5046663;28;20207;-73
2023/10/17 08:07:13;;;;;;;0.30;0.30;;;;;;;12.09;58.07;94981.78;5056615;28;20219;-73
2023/10/17 08:09:50;;;;;;;0.40;0.40;;;;;;;11.88;58.65;94984.44;5051093;28;20211;-74
2023/10/17 08:12:21;;;;;;;0.30;0.30;;;;;;;11.62;59.23;94986.41;5051157;28;20239;-74
2023/10/17 08:14:57;;;;;;;0.40;0.40;;;;;;;11.55;59.47;94983.44;5050662;28;20700;-74
2023/10/17 08:17:28;;;;;;;0.40;0.40;;;;;;;11.30;59.58;94985.91;5053047;28;20199;-74
2023/10/17 08:20:08;;;;;;;0.63;0.63;;;;;;;11.35;59.73;94996.56;5059526;28;20532;-73
2023/10/17 08:25:26;;;;;;;0.20;0.20;;;;;;;11.37;59.66;94986.19;5051065;28;20628;-73
2023/10/17 08:27:55;;;;;;;0.20;0.20;;;;;;;11.39;59.65;94994.00;5051201;28;20297;-74
2023/10/17 08:30:27;;;;;;;0.20;0.20;;;;;;;11.46;59.63;94982.66;5050809;28;20208;-74
2023/10/17 08:33:11;;;;;;;0.52;0.52;;;;;;;11.47;59.64;94995.91;5048474;28;20212;-73
2023/10/17 08:35:37;;;;;;;0.50;0.50;;;;;;;11.27;60.21;94986.53;5063809;28;20214;-75
2023/10/17 08:38:06;;;;;;;0.45;0.32;;;;;;;11.64;59.53;94973.31;5054606;28;20208;-75
2023/10/17 08:40:32;;;;;;;0.20;0.20;;;;;;;11.71;58.66;94979.06;5050549;28;20231;-77
2023/10/17 08:43:02;;;;;;;0.20;0.20;;;;;;;11.96;58.26;94971.94;5050949;28;20219;-76
2023/10/17 08:45:36;;;;;;;0.20;0.20;;;;;;;12.01;58.28;94972.56;5052016;28;20204;-77
2023/10/17 08:48:08;;;;;;;0.28;0.28;;;;;;;11.85;58.53;94979.66;5070554;28;20210;-78
2023/10/17 08:50:37;;;;;;;0.30;0.30;;;;;;;11.82;58.28;94984.94;5057151;28;20214;-77
2023/10/17 08:53:07;;;;;;;0.10;0.10;;;;;;;11.98;58.48;94989.50;5050229;28;20208;-77
2023/10/17 08:55:34;;;;;;;0.20;0.20;;;;;;;11.82;58.56;94993.09;5050554;28;20317;-76
2023/10/17 08:58:00;;;;;;;0.20;0.20;;;;;;;11.98;58.65;94986.00;5050613;28;20211;-76
2023/10/17 09:00:49;;;;;;;0.10;0.10;;;;;;;11.94;58.58;94985.84;5060539;28;20305;-75
2023/10/17 09:03:28;;;;;;;0.10;0.10;;;;;;;12.04;58.44;94988.19;5070363;28;20211;-75
2023/10/17 09:06:06;;;;;;;0.30;0.30;;;;;;;12.12;58.37;94983.84;5054043;28;20237;-76
2023/10/17 09:08:47;;;;;;;0.30;0.30;;;;;;;12.28;57.52;94975.91;5040856;28;20785;-76
2023/10/17 09:11:15;;;;;;;0.20;0.20;;;;;;;12.16;58.20;94973.13;5054771;28;20242;-76
2023/10/17 09:16:39;;;;;;;0.20;0.20;;;;;;;12.00;58.73;94965.53;5070246;28;20241;-74
2023/10/17 09:19:10;;;;;;;0.30;0.30;;;;;;;11.94;58.76;94961.41;5070035;28;20245;-77
2023/10/17 09:21:41;;;;;;;0.20;0.20;;;;;;;12.05;58.62;94968.03;5059212;28;20214;-76
2023/10/17 09:24:29;;;;;;;0.30;0.30;;;;;;;12.04;58.69;94947.44;5055461;28;20256;-76
2023/10/17 09:26:58;;;;;;;0.20;0.20;;;;;;;12.22;58.15;94944.63;5068959;28;20206;-76
2023/10/17 09:29:27;;;;;;;0.20;0.20;;;;;;;12.42;57.96;94943.88;5050503;28;20203;-76
2023/10/17 09:31:55;;;;;;;0.20;0.20;;;;;;;12.59;57.62;94938.28;5049836;28;20687;-77
2023/10/17 09:34:26;;;;;;;0.88;0.88;;;;;;;12.76;57.23;94926.47;5051352;28;20200;-76
2023/10/17 09:37:03;;;;;;;0.20;0.20;;;;;;;12.85;57.08;94929.13;5054052;28;20299;-75
2023/10/17 09:39:33;;;;;;;0.10;0.10;;;;;;;13.04;56.72;94932.91;5041998;28;20234;-76
2023/10/17 09:41:59;;;;;;;0.20;0.20;;;;;;;12.89;57.09;94924.59;5053792;28;20656;-74
2023/10/17 09:44:26;;;;;;;0.20;0.20;;;;;;;13.00;56.54;94914.88;5065247;28;20203;-76
2023/10/17 09:46:59;;;;;;;0.20;0.20;;;;;;;12.79;57.01;94923.09;5054031;28;20401;-75
2023/10/17 09:49:37;;;;;;;0.20;0.20;;;;;;;12.47;57.65;94913.75;5054288;28;20215;-75
2023/10/17 09:52:09;;;;;;;0.47;0.47;;;;;;;12.77;57.22;94915.25;5053792;28;20333;-76
2023/10/17 09:54:40;;;;;;;0.52;0.38;;;;;;;12.58;56.83;94908.72;5054114;28;20539;-76
2023/10/17 09:57:09;;;;;;;0.30;0.30;;;;;;;12.54;57.38;94911.31;5059739;28;20297;-75
2023/10/17 09:59:44;;;;;;;0.20;0.20;;;;;;;12.48;57.97;94909.91;5074265;28;20199;-76
2023/10/17 10:02:17;;;;;;;0.20;0.20;;;;;;;12.73;57.20;94906.16;5073310;28;20329;-75
2023/10/17 10:04:46;;;;;;;0.43;0.43;;;;;;;12.82;56.26;94915.06;5058750;28;20207;-75
2023/10/17 10:07:21;;;;;;;0.50;0.50;;;;;;;12.83;55.76;94910.41;5053429;28;20681;-75
2023/10/17 10:09:48;;;;;;;0.85;0.63;;;;;;;12.59;55.76;94910.28;5053641;28;20605;-76
2023/10/17 10:12:15;;;;;;;0.20;0.20;;;;;;;12.62;56.08;94910.44;5053418;28;20581;-76
2023/10/17 10:14:42;;;;;;;0.20;0.20;;;;;;;12.77;55.43;94898.94;5053384;28;20522;-75
2023/10/17 10:17:10;;;;;;;0.10;0.10;;;;;;;12.58;55.39;94900.56;5053322;28;20252;-74
2023/10/17 10:20:00;;;;;;;0.20;0.20;;;;;;;12.66;55.73;94894.25;5053196;28;20215;-75
2023/10/17 10:22:50;;;;;;;0.40;0.40;;;;;;;12.63;55.52;94901.16;5053164;28;20214;-73
2023/10/17 10:25:17;;;;;;;0.10;0.10;;;;;;;12.60;55.61;94896.38;5053140;28;20257;-76
2023/10/17 10:27:46;;;;;;;0.20;0.20;;;;;;;12.60;55.81;94896.38;5053144;28;20212;-75
2023/10/17 10:30:34;;;;;;;2.85;0.45;;;;;;;12.73;55.27;94898.00;5057337;28;20216;-76
2023/10/17 10:33:02;;;;;;;0.10;0.10;;;;;;;12.85;55.13;94891.06;5041402;28;20287;-76
2023/10/17 10:35:33;;;;;;;3.05;1.10;;;;;;;13.07;54.92;94893.38;5052998;28;20352;-75
2023/10/17 10:38:00;;;;;;;0.55;0.47;;;;;;;13.15;54.36;94885.13;5052742;28;20257;-76
2023/10/17 10:40:30;;;;;;;1.08;0.95;;;;;;;13.08;54.30;94894.97;5052377;28;20223;-75
2023/10/17 10:42:59;;;;;;;0.52;0.52;;;;;;;13.08;54.94;94889.53;5060012;28;20301;-76
2023/10/17 10:45:35;;;;;;;0.20;0.20;;;;;;;13.23;54.56;94879.94;5056197;28;20567;-75
2023/10/17 10:48:04;;;;;;;0.25;0.25;;;;;;;13.30;54.25;94880.19;5064347;28;20210;-75
2023/10/17 10:50:34;;;;;;;0.20;0.20;;;;;;;13.25;53.83;94883.94;5072548;28;20207;-78
2023/10/17 10:53:02;;;;;;;0.13;0.13;;;;;;;13.20;54.64;94881.41;5072595;28;20294;-78
2023/10/17 10:55:30;;;;;;;0.10;0.10;;;;;;;12.98;55.49;94879.09;5067191;28;20644;-76
2023/10/17 10:58:00;;;;;;;0.10;0.10;;;;;;;13.11;54.81;94886.13;5053136;28;20211;-76
2023/10/17 11:00:27;;;;;;;0.10;0.10;;;;;;;13.15;55.88;94878.91;5052980;28;20247;-76
2023/10/17 11:02:56;;;;;;;0.70;0.70;;;;;;;13.13;55.97;94870.25;5052748;28;20588;-76
2023/10/17 11:05:23;;;;;;;0.40;0.20;;;;;;;13.19;56.78;94874.38;5052860;28;20203;-75
2023/10/17 11:07:59;;;;;;;0.20;0.20;;;;;;;13.01;56.35;94867.50;5036770;28;20498;-76
2023/10/17 11:10:26;;;;;;;0.10;0.10;;;;;;;12.82;57.60;94866.13;5072805;28;20206;-76
2023/10/17 11:12:54;;;;;;;0.30;0.30;;;;;;;12.85;58.58;94864.63;5073139;28;20280;-76
2023/10/17 11:15:26;;;;;;;0.28;0.28;;;;;;;12.74;58.21;94858.84;5072644;28;20266;-74
2023/10/17 11:18:00;;;;;;;0.20;0.20;;;;;;;12.78;58.56;94851.59;5072117;28;20322;-76
2023/10/17 11:20:28;;;;;;;0.20;0.20;;;;;;;13.01;57.48;94851.19;5060622;28;20286;-75
2023/10/17 11:22:57;;;;;;;0.20;0.20;;;;;;;13.23;56.68;94839.94;5056352;28;20265;-75
2023/10/17 11:25:28;;;;;;;0.10;0.10;;;;;;;13.13;57.04;94849.28;5072513;28;20214;-76
2023/10/17 11:28:00;;;;;;;0.25;0.25;;;;;;;13.05;57.28;94830.34;5072515;28;20211;-75
2023/10/17 11:30:34;;;;;;;0.28;0.28;;;;;;;13.11;56.92;94837.19;5072385;28;20680;-75
2023/10/17 11:33:03;;;;;;;0.20;0.20;;;;;;;12.86;57.15;94830.09;5057439;28;20208;-79
2023/10/17 11:35:31;;;;;;;0.65;0.43;;;;;;;12.91;56.98;94825.25;5046789;28;20232;-77
2023/10/17 11:38:00;;;;;;;0.10;0.10;;;;;;;12.72;57.51;94823.03;5052471;28;20215;-78
2023/10/17 11:40:32;;;;;;;0.65;0.65;;;;;;;12.75;57.25;94822.38;5051113;28;20224;-78
2023/10/17 11:43:00;;;;;;;0.50;0.50;;;;;;;12.88;57.36;94819.66;5059347;28;20218;-77
2023/10/17 11:45:33;;;;;;;0.40;0.40;;;;;;;13.06;56.84;94812.91;5055144;28;20243;-80
2023/10/17 11:48:14;;;;;;;0.10;0.10;;;;;;;13.00;55.84;94808.81;5051776;28;20203;-77
2023/10/17 11:50:41;;;;;;;0.17;0.17;;;;;;;12.54;56.74;94799.91;5050032;28;20218;-78
2023/10/17 11:53:14;;;;;;;0.93;0.93;;;;;;;12.54;57.16;94802.63;5051410;28;20602;-77
2023/10/17 11:55:43;;;;;;;0.68;0.68;;;;;;;12.49;57.34;94797.38;5051622;28;20227;-79
2023/10/17 11:58:10;;;;;;;0.20;0.20;;;;;;;12.50;57.32;94793.53;5050605;28;20219;-75
2023/10/17 12:00:37;;;;;;;0.20;0.20;;;;;;;12.46;57.49;94798.84;5051708;28;20216;-74
2023/10/17 12:03:05;;;;;;;0.30;0.30;;;;;;;12.55;57.35;94806.94;5051490;28;20230;-75
2023/10/17 12:05:35;;;;;;;0.20;0.20;;;;;;;12.59;57.37;94801.59;5051222;28;20662;-75
2023/10/17 12:08:02;;;;;;;0.30;0.22;;;;;;;12.57;56.90;94799.25;5050777;28;20326;-71
2023/10/17 12:10:36;;;;;;;0.20;0.20;;;;;;;12.78;57.35;94802.69;5057385;28;20203;-74
2023/10/17 12:13:06;;;;;;;0.10;0.10;;;;;;;12.83;56.86;94796.22;5066958;28;20610;-72
2023/10/17 12:15:33;;;;;;;0.35;0.15;;;;;;;12.82;56.63;94806.31;5049853;28;20277;-73
2023/10/17 12:18:00;;;;;;;0.20;0.20;;;;;;;12.59;56.88;94801.59;5050900;28;20292;-73
2023/10/17 12:20:28;;;;;;;0.20;0.20;;;;;;;12.58;57.23;94792.66;5059499;28;20211;-78
2023/10/17 12:22:56;;;;;;;0.28;0.28;;;;;;;12.71;56.89;94798.94;5036597;28;20230;-75
2023/10/17 12:25:24;;;;;;;0.40;0.40;;;;;;;12.50;57.34;94782.66;5049986;28;20203;-76
2023/10/17 12:27:56;;;;;;;0.20;0.20;;;;;;;12.58;57.07;94779.06;5050693;28;20203;-75
2023/10/17 12:30:27;;;;;;;0.20;0.20;;;;;;;12.54;57.63;94796.38;5050385;28;20218;-77
2023/10/17 12:32:55;;;;;;;0.30;0.30;;;;;;;12.36;58.21;94782.16;5044718;28;20609;-75
2023/10/17 12:35:22;;;;;;;0.20;0.20;;;;;;;12.39;58.16;94786.94;5043730;28;20211;-75
2023/10/17 12:37:51;;;;;;;0.40;0.40;;;;;;;12.37;58.34;94781.03;5058017;28;20211;-75
2023/10/17 12:40:21;;;;;;;0.20;0.20;;;;;;;12.29;58.50;94776.50;5068536;28;20226;-77
2023/10/17 12:42:49;;;;;;;0.30;0.30;;;;;;;12.30;58.79;94786.25;5067736;28;20233;-75
2023/10/17 12:45:19;;;;;;;0.20;0.20;;;;;;;12.41;58.95;94779.25;5054718;28;20216;-76
2023/10/17 12:47:47;;;;;;;0.20;0.20;;;;;;;12.26;59.22;94771.72;5050163;28;20226;-74
2023/10/17 12:50:15;;;;;;;0.20;0.20;;;;;;;12.25;59.63;94776.38;5049284;28;20235;-75
2023/10/17 12:52:42;;;;;;;0.30;0.30;;;;;;;12.14;59.81;94788.00;5050432;28;20656;-75
2023/10/17 12:55:11;;;;;;;0.10;0.10;;;;;;;12.19;60.05;94785.03;5049289;28;20215;-74
2023/10/17 12:57:39;;;;;;;0.20;0.20;;;;;;;12.15;59.98;94787.66;5050358;28;20223;-76
2023/10/17 13:00:09;;;;;;;0.20;0.20;;;;;;;12.10;60.20;94785.94;5066056;28;20221;-76
2023/10/17 13:02:38;;;;;;;0.38;0.38;;;;;;;12.18;60.24;94786.97;5070392;28;20210;-75
2023/10/17 13:05:09;;;;;;;0.10;0.10;;;;;;;12.12;60.63;94782.09;5051202;28;20257;-75
2023/10/17 13:07:37;;;;;;;0.40;0.40;;;;;;;12.13;61.04;94789.13;5050526;28;20239;-77
2023/10/17 13:10:04;;;;;;;0.20;0.20;;;;;;;12.03;61.41;94790.28;5045808;28;20310;-74
2023/10/17 13:12:31;;;;;;;0.30;0.30;;;;;;;11.95;61.65;94781.09;5070062;28;20273;-73
2023/10/17 13:14:58;;;;;;;0.15;0.15;;;;;;;12.31;64.22;94774.22;5070299;28;20211;-74
2023/10/17 13:17:27;;;;;;;0.40;0.40;;;;;;;12.61;62.83;94780.31;5069493;28;20248;-74
2023/10/17 13:19:57;;;;;;;0.20;0.20;;;;;;;12.35;61.43;94780.59;5065493;28;20218;-73
2023/10/17 13:22:24;;;;;;;0.15;0.15;;;;;;;12.32;63.55;94775.81;5037391;28;20207;-76
2023/10/17 13:24:51;;;;;;;0.20;0.20;;;;;;;12.29;63.34;94776.50;5051680;28;20225;-79
2023/10/17 13:27:18;;;;;;;1.27;0.65;;;;;;;12.19;63.81;94776.91;5049614;28;20202;-74
2023/10/17 13:29:46;;;;;;;0.35;0.35;;;;;;;11.84;65.93;94777.22;5054663;28;20206;-74
2023/10/17 13:32:13;;;;;;;0.20;0.20;;;;;;;11.52;67.22;94775.16;5057767;28;20335;-76